Latest Weather Observations for Kyabram

IDV60801

Issued at 9:22 pm EST Wednesday 19 September 2018 (issued every 10 minutes, with the page automatically refreshed every 10 minutes)

About weather observations | Map of weather stations | Latest weather observations for VIC | Other Formats
Station Details ID: 080091 Name: KYABRAM Lat: -36.34 Lon: 145.06 Height: 105.0 m
Data from the previous 72 hours. | See also: Recent months at Kyabram
Date/Time
EST
Temp
°C
App
Temp
°C
Dew
Point
°C
Rel
Hum
%
Delta-T
°C
Wind Press
QNH
hPa
Press
MSL
hPa
Rain since
9am
mm
Dir  Spd
km/h
Gust
km/h
Spd
kts
Gust
kts
19/09:00pm 6.0 4.3 2.1 76 1.6 CALM 0 0 0 0 - - 0.0
19/08:30pm 6.7 5.1 2.6 75 1.7 CALM 0 0 0 0 - - 0.0
19/08:00pm 8.8 7.0 1.5 60 3.0 CALM 0 0 0 0 - - 0.0
19/07:30pm 9.8 7.3 1.5 56 3.5 SSE 4 13 2 7 - - 0.0
19/07:00pm 9.7 7.4 0.6 53 3.7 WSW 2 6 1 3 - - 0.0
19/06:30pm 11.2 9.4 1.2 50 4.2 CALM 0 0 0 0 - - 0.0
19/06:00pm 13.0 10.8 1.0 44 5.1 WSW 2 9 1 5 - - 0.0
19/05:30pm 14.6 11.0 0.8 39 5.9 WSW 9 15 5 8 - - 0.0
19/05:00pm 15.0 11.5 1.5 40 5.9 WSW 9 17 5 9 - - 0.0
19/04:30pm 15.7 11.4 1.1 37 6.4 WSW 13 28 7 15 - - 0.0
19/04:00pm 15.8 11.3 0.0 34 6.8 W 13 22 7 12 - - 0.0
19/03:30pm 14.2 9.8 0.5 39 5.8 WSW 13 20 7 11 - - 0.0
19/03:00pm 16.2 12.4 1.5 37 6.5 WSW 11 19 6 10 - - 0.0
19/02:30pm 15.5 11.7 1.6 39 6.1 SW 11 20 6 11 - - 0.0
19/02:00pm 15.7 10.9 2.5 41 5.9 WSW 17 28 9 15 - - 0.0
19/01:30pm 12.8 8.7 2.4 49 4.6 SW 13 20 7 11 - - 0.0
19/01:00pm 14.1 10.3 2.0 44 5.3 SW 11 20 6 11 - - 0.0
19/12:30pm 13.7 10.3 3.8 51 4.5 WSW 11 20 6 11 - - 0.0
19/12:00pm 12.8 9.1 4.3 56 3.9 SW 13 20 7 11 - - 0.0
19/11:30am 12.0 8.3 4.7 61 3.3 SW 13 20 7 11 - - 0.0
19/11:00am 11.7 8.0 4.4 61 3.3 SW 13 22 7 12 - - 0.0
19/10:30am 11.1 7.4 4.6 64 2.9 SW 13 22 7 12 - - 0.0
19/10:00am 10.9 7.7 5.0 67 2.7 WSW 11 17 6 9 - - 0.0
19/09:30am 9.9 6.4 5.5 74 2.0 W 13 20 7 11 - - 0.0
19/09:00am 8.6 5.0 5.2 79 1.5 WSW 13 20 7 11 - - 0.6
19/08:30am 8.2 5.2 5.8 85 1.1 W 11 20 6 11 - - 0.6
19/08:00am 6.8 3.6 5.1 89 0.8 W 11 20 6 11 - - 0.6
19/07:30am 5.7 2.4 4.7 93 0.4 W 11 22 6 12 - - 0.6
19/07:00am 5.0 2.1 4.4 96 0.3 WNW 9 13 5 7 - - 0.6
19/06:30am 4.7 1.7 4.0 95 0.3 WNW 9 17 5 9 - - 0.6
19/06:00am 5.1 2.1 4.2 94 0.4 NW 9 13 5 7 - - 0.6
19/05:30am 5.6 3.1 4.7 94 0.4 WNW 7 19 4 10 - - 0.6
19/05:00am 6.3 3.9 5.3 93 0.4 NW 7 28 4 15 - - 0.6
19/04:30am 7.3 5.1 6.2 93 0.5 NW 7 13 4 7 - - 0.6
19/04:00am 7.3 5.3 6.1 92 0.5 NW 6 9 3 5 - - 0.6
19/03:30am 7.7 5.6 5.8 88 0.9 NW 6 11 3 6 - - 0.6
19/03:00am 8.3 5.7 6.1 86 1.0 W 9 13 5 7 - - 0.6
19/02:30am 8.8 6.3 6.4 85 1.1 WNW 9 20 5 11 - - 0.6
19/02:00am 9.0 6.6 6.8 86 1.0 W 9 15 5 8 - - 0.6
19/01:30am 9.0 7.0 7.0 87 0.9 W 7 13 4 7 - - 0.6
19/01:00am 9.1 8.4 7.1 87 0.9 CALM 0 0 0 0 - - 0.6
19/12:30am 9.5 8.4 6.9 84 1.2 WNW 2 7 1 4 - - 0.6
19/12:00am 10.0 7.2 6.9 81 1.5 SW 11 19 6 10 - - 0.6
 
Date/Time
EST
Temp
°C
App
Temp
°C
Dew
Point
°C
Rel
Hum
%
Delta-T
°C
Wind Press
QNH
hPa
Press
MSL
hPa
Rain since
9am
mm
Dir  Spd
km/h
Gust
km/h
Spd
kts
Gust
kts
18/11:30pm 10.6 6.7 7.1 79 1.7 SW 17 30 9 16 - - 0.6
18/11:00pm 11.2 7.9 8.2 82 1.5 WSW 15 22 8 12 - - 0.6
18/10:30pm 11.2 8.3 8.2 82 1.5 W 13 20 7 11 - - 0.6
18/10:00pm 10.9 8.2 8.8 87 1.0 NW 13 26 7 14 - - 0.4
18/09:30pm 11.6 7.7 8.6 82 1.5 NNW 19 26 10 14 - - 0.2
18/09:00pm 12.1 10.0 8.2 77 1.9 NW 9 19 5 10 - - 0.0
18/08:30pm 12.3 10.5 7.8 74 2.2 WNW 7 13 4 7 - - 0.0
18/08:00pm 12.4 11.9 7.7 73 2.3 CALM 0 0 0 0 - - 0.0
18/07:30pm 12.7 10.8 7.6 71 2.5 SSW 7 11 4 6 - - 0.0
18/07:00pm 13.4 11.1 7.6 68 2.9 SSW 9 15 5 8 - - 0.0
18/06:30pm 15.5 10.8 6.2 54 4.5 WSW 20 33 11 18 - - 0.0
18/06:00pm 16.5 13.8 0.6 34 6.9 NW 4 11 2 6 - - 0.0
18/05:30pm 17.7 14.3 -0.5 29 7.8 WNW 7 11 4 6 - - 0.0
18/05:00pm 18.6 13.9 -1.8 25 8.6 W 13 22 7 12 - - 0.0
18/04:30pm 18.5 14.4 -0.3 28 8.2 NW 11 15 6 8 - - 0.0
18/04:00pm 19.3 15.3 -2.3 23 9.1 NW 9 17 5 9 - - 0.0
18/03:30pm 19.9 16.0 -1.8 23 9.3 NW 9 17 5 9 - - 0.0
18/03:00pm 20.3 15.0 -3.4 20 9.9 NW 15 24 8 13 - - 0.0
18/02:30pm 20.7 16.3 -2.4 21 9.8 NNW 11 22 6 12 - - 0.0
18/02:00pm 21.0 14.0 -3.5 19 10.2 NNW 24 35 13 19 - - 0.0
18/01:30pm 21.4 15.7 -3.9 18 10.5 WNW 17 28 9 15 - - 0.0
18/01:00pm 22.0 15.9 -4.1 17 10.9 NW 19 30 10 16 - - 0.0
18/12:30pm 21.0 12.8 -4.2 18 10.4 NNW 30 46 16 25 - - 0.0
18/12:10pm 21.2 12.9 -4.8 17 10.6 NNW 30 48 16 26 - - 0.0
18/12:00pm 21.5 12.9 -4.5 17 10.7 NNW 32 41 17 22 - - 0.0
18/11:30am 20.7 12.4 -5.2 17 10.4 N 30 44 16 24 - - 0.0
18/11:00am 20.9 14.4 -2.2 21 9.9 N 22 35 12 19 - - 0.0
18/10:30am 19.0 12.2 -2.0 24 8.9 N 24 35 13 19 - - 0.0
18/10:00am 18.0 12.8 0.2 30 7.8 N 17 24 9 13 - - 0.0
18/09:30am 15.4 10.1 -0.8 33 6.8 NNE 17 26 9 14 - - 0.0
18/09:00am 13.3 8.0 -0.3 39 5.6 NNE 17 24 9 13 - - 0.0
18/08:30am 11.6 7.2 0.1 45 4.7 NNE 13 24 7 13 - - 0.0
18/08:00am 9.6 4.7 -0.3 50 4.0 NNE 15 24 8 13 - - 0.0
18/07:30am 7.7 3.6 0.0 58 3.0 NNE 11 17 6 9 - - 0.0
18/07:00am 5.4 1.7 0.0 68 2.1 NE 9 11 5 6 - - 0.0
18/06:30am 4.4 0.6 -0.6 70 1.9 NE 9 17 5 9 - - 0.0
18/06:00am 4.6 0.8 -0.4 70 1.9 NNE 9 15 5 8 - - 0.0
18/05:30am 4.4 0.7 -0.2 72 1.7 NE 9 13 5 7 - - 0.0
18/05:00am 4.3 0.6 -0.3 72 1.7 NE 9 13 5 7 - - 0.0
18/04:30am 4.4 0.7 -0.2 72 1.7 NE 9 13 5 7 - - 0.0
18/04:00am 4.5 1.2 -0.1 72 1.7 NE 7 11 4 6 - - 0.0
18/03:30am 4.7 1.5 -0.3 70 1.9 NE 6 9 3 5 - - 0.0
18/03:00am 5.6 2.3 0.2 68 2.1 NE 7 13 4 7 - - 0.0
18/02:30am 5.5 2.3 -0.3 66 2.2 NE 6 9 3 5 - - 0.0
18/02:00am 6.0 2.8 -0.3 64 2.4 NE 6 7 3 4 - - 0.0
18/01:30am 6.5 3.3 -0.2 62 2.6 NE 6 9 3 5 - - 0.0
18/01:00am 7.0 3.8 -0.4 59 2.9 NE 6 9 3 5 - - 0.0
18/12:30am 7.7 4.5 -0.5 56 3.2 NE 6 9 3 5 - - 0.0
18/12:00am 8.4 5.2 -0.4 54 3.5 NNE 6 9 3 5 - - 0.0
 
Date/Time
EST
Temp
°C
App
Temp
°C
Dew
Point
°C
Rel
Hum
%
Delta-T
°C
Wind Press
QNH
hPa
Press
MSL
hPa
Rain since
9am
mm
Dir  Spd
km/h
Gust
km/h
Spd
kts
Gust
kts
17/11:30pm 8.6 5.3 -0.2 54 3.5 NNE 7 11 4 6 - - 0.0
17/11:00pm 8.8 5.5 -0.2 53 3.6 NNE 7 11 4 6 - - 0.0
17/10:30pm 9.6 5.9 -0.3 50 4.0 NNE 9 13 5 7 - - 0.0
17/10:00pm 9.4 6.1 0.1 52 3.7 NNE 7 11 4 6 - - 0.0
17/09:30pm 10.0 6.7 0.3 51 3.9 NE 7 13 4 7 - - 0.0
17/09:00pm 10.1 6.9 0.7 52 3.9 NE 7 11 4 6 - - 0.0
17/08:30pm 10.2 7.0 0.5 51 4.0 NE 7 9 4 5 - - 0.0
17/08:00pm 10.7 7.7 1.0 51 4.0 NNE 6 7 3 4 - - 0.0
17/07:30pm 10.7 9.1 2.3 56 3.6 CALM 0 0 0 0 - - 0.0
17/07:00pm 11.8 10.2 2.3 52 4.1 CALM 0 0 0 0 - - 0.0
17/06:30pm 12.5 10.7 1.5 47 4.7 CALM 0 0 0 0 - - 0.0
17/06:00pm 13.7 10.5 0.7 41 5.5 N 7 9 4 5 - - 0.0
17/05:30pm 15.5 11.8 -0.3 34 6.7 N 9 15 5 8 - - 0.0
17/05:00pm 17.0 12.5 -0.2 31 7.4 N 13 19 7 10 - - 0.0
17/04:30pm 17.3 12.4 -0.4 30 7.6 N 15 24 8 13 - - 0.0
17/04:00pm 17.3 12.5 0.0 31 7.5 N 15 20 8 11 - - 0.0
17/03:30pm 17.6 12.7 -0.6 29 7.8 NNE 15 24 8 13 - - 0.0
17/03:00pm 17.4 12.6 0.1 31 7.5 NNW 15 24 8 13 - - 0.0
17/02:30pm 17.5 13.1 0.2 31 7.5 N 13 24 7 13 - - 0.0
17/02:00pm 17.7 12.2 0.8 32 7.5 NNW 19 35 10 19 - - 0.0
17/01:30pm 17.0 12.7 1.0 34 7.1 NNW 13 24 7 13 - - 0.0
17/01:00pm 17.4 13.3 2.2 36 6.9 NNW 13 22 7 12 - - 0.0
17/12:30pm 16.1 11.5 1.4 37 6.5 NNW 15 22 8 12 - - 0.0
17/12:00pm 15.2 10.4 0.2 36 6.4 N 15 28 8 15 - - 0.0
17/11:30am 15.4 10.7 1.2 38 6.2 NNW 15 26 8 14 - - 0.0
17/11:00am 14.7 10.1 1.6 41 5.7 NNW 15 22 8 12 - - 0.0
17/10:30am 14.2 10.5 2.1 44 5.3 N 11 17 6 9 - - 0.0
17/10:00am 13.3 10.1 2.8 49 4.7 N 9 19 5 10 - - 0.0
17/09:30am 11.4 8.1 2.4 54 3.9 NNE 9 13 5 7 - - 0.0
17/09:00am 10.1 7.2 2.7 60 3.2 NNE 7 13 4 7 - - 0.0
17/08:30am 8.0 5.0 2.3 67 2.4 NE 7 13 4 7 - - 0.0
17/08:00am 6.0 3.1 2.5 78 1.4 NE 7 11 4 6 - - 0.0
17/07:30am 3.2 0.0 2.8 97 0.2 ENE 9 13 5 7 - - 0.0
17/07:00am 0.5 -1.4 0.4 99 0.0 CALM 0 0 0 0 - - 0.0
17/06:30am -1.0 -3.1 -1.1 99 0.0 CALM 0 0 0 0 - - 0.0
17/06:00am -0.7 -2.8 -0.8 99 0.0 CALM 0 0 0 0 - - 0.0
17/05:30am -0.5 -2.6 -0.6 99 0.0 CALM 0 0 0 0 - - 0.0
17/05:00am -0.4 -2.5 -0.5 99 0.0 CALM 0 0 0 0 - - 0.0
17/04:30am 0.2 -1.8 0.1 99 0.0 CALM 0 0 0 0 - - 0.0
17/04:00am 0.3 -1.7 0.2 99 0.0 CALM 0 0 0 0 - - 0.0
17/03:30am 0.0 -2.0 -0.3 98 0.1 CALM 0 0 0 0 - - 0.0
17/03:00am 0.1 -1.9 -0.2 98 0.1 CALM 0 0 0 0 - - 0.0
17/02:30am 0.9 -1.0 0.6 98 0.1 CALM 0 0 0 0 - - 0.0
17/02:00am 0.7 -1.3 0.1 96 0.2 CALM 0 0 0 0 - - 0.0
17/01:30am 1.4 -0.5 0.8 96 0.2 CALM 0 0 0 0 - - 0.0
17/01:00am 1.3 -0.6 0.6 95 0.3 CALM 0 0 0 0 - - 0.0
17/12:30am 1.8 0.0 0.9 94 0.3 CALM 0 0 0 0 - - 0.0
17/12:00am 2.2 0.4 1.0 92 0.5 CALM 0 0 0 0 - - 0.0
 
Date/Time
EST
Temp
°C
App
Temp
°C
Dew
Point
°C
Rel
Hum
%
Delta-T
°C
Wind Press
QNH
hPa
Press
MSL
hPa
Rain since
9am
mm
Dir  Spd
km/h
Gust
km/h
Spd
kts
Gust
kts
16/11:30pm 2.1 0.2 0.3 88 0.7 CALM 0 0 0 0 - - 0.0
16/11:00pm 2.8 1.0 1.0 88 0.7 CALM 0 0 0 0 - - 0.0
16/10:30pm 3.5 1.7 1.2 85 0.9 CALM 0 0 0 0 - - 0.0
16/10:00pm 3.4 1.6 1.3 86 0.8 CALM 0 0 0 0 - - 0.0
16/09:30pm 3.6 1.7 0.7 81 1.1 CALM 0 0 0 0 - - 0.0

Other Formats:

Comma delimited format used in spreadsheet applications
http://www.bom.gov.au/fwo/IDV60801/IDV60801.95833.axf

JavaScript Object Notation format (JSON) in row-major order
http://www.bom.gov.au/fwo/IDV60801/IDV60801.95833.json